createdAt,value
2019-05-14T00:01:31.420Z,16.00
2019-05-14T00:04:02.091Z,16.90
2019-05-14T00:06:31.769Z,17.83
2019-05-14T00:09:01.506Z,16.93
2019-05-14T00:11:31.340Z,16.17
2019-05-14T00:14:01.308Z,16.03
2019-05-14T00:16:31.524Z,16.77
2019-05-14T00:19:01.705Z,15.57
2019-05-14T00:21:31.676Z,15.17
2019-05-14T00:24:01.879Z,15.23
2019-05-14T00:26:31.894Z,15.43
2019-05-14T00:29:01.755Z,15.40
2019-05-14T00:31:31.795Z,16.30
2019-05-14T00:34:01.828Z,15.40
2019-05-14T00:36:31.990Z,17.13
2019-05-14T00:39:01.936Z,16.93
2019-05-14T00:41:31.543Z,17.37
2019-05-14T00:44:01.947Z,16.97
2019-05-14T00:46:31.652Z,17.77
2019-05-14T00:49:01.902Z,16.77
2019-05-14T00:51:31.895Z,17.30
2019-05-14T00:54:01.838Z,18.40
2019-05-14T00:56:32.155Z,18.63
2019-05-14T00:59:01.772Z,17.03
2019-05-14T01:01:31.896Z,17.40
2019-05-14T01:04:01.571Z,18.03
2019-05-14T01:06:31.639Z,16.87
2019-05-14T01:09:01.618Z,17.47
2019-05-14T01:11:31.611Z,17.53
2019-05-14T01:14:01.832Z,16.87
2019-05-14T01:16:31.804Z,17.77
2019-05-14T01:19:02.141Z,19.30
2019-05-14T01:21:31.775Z,21.53
2019-05-14T01:24:02.083Z,22.73
2019-05-14T01:26:31.726Z,25.10
2019-05-14T01:29:01.565Z,24.83
2019-05-14T01:31:31.598Z,23.87
2019-05-14T01:34:02.263Z,24.90
2019-05-14T01:36:32.196Z,25.60
2019-05-14T01:39:02.030Z,25.03
2019-05-14T01:41:31.883Z,25.70
2019-05-14T01:44:01.924Z,25.27
2019-05-14T01:46:31.835Z,25.23
2019-05-14T01:49:01.758Z,24.63
2019-05-14T01:51:31.764Z,26.97
2019-05-14T01:54:01.651Z,26.03
2019-05-14T01:56:31.891Z,25.70
2019-05-14T01:59:01.903Z,25.47
2019-05-14T02:01:31.756Z,25.50
2019-05-14T02:04:02.338Z,26.10
2019-05-14T02:06:32.126Z,26.00
2019-05-14T02:09:02.128Z,26.67
2019-05-14T02:11:32.172Z,28.30
2019-05-14T02:14:02.439Z,28.77
2019-05-14T02:16:32.287Z,26.00
2019-05-14T02:19:01.974Z,27.37
2019-05-14T02:21:31.922Z,26.97
2019-05-14T02:24:02.150Z,29.67
2019-05-14T02:26:31.895Z,28.13
2019-05-14T02:29:02.086Z,27.83
2019-05-14T02:31:31.709Z,28.73
2019-05-14T02:34:01.294Z,28.17
2019-05-14T02:36:31.207Z,27.87
2019-05-14T02:39:00.905Z,26.97
2019-05-14T02:41:30.482Z,28.20
2019-05-14T02:44:00.083Z,28.90
2019-05-14T02:46:29.912Z,27.80
2019-05-14T02:49:02.882Z,28.27
2019-05-14T02:51:32.721Z,29.60
2019-05-14T02:54:02.368Z,29.43
2019-05-14T02:56:31.924Z,30.80
2019-05-14T02:59:05.622Z,31.03
2019-05-14T03:01:32.800Z,32.07
2019-05-14T03:04:02.669Z,32.73
2019-05-14T03:06:32.401Z,31.77
2019-05-14T03:09:02.081Z,31.73
2019-05-14T03:11:31.674Z,31.37
2019-05-14T03:14:01.278Z,33.07
2019-05-14T03:16:35.581Z,33.23
2019-05-14T03:19:02.400Z,34.93
2019-05-14T03:21:31.996Z,35.17
2019-05-14T03:24:01.700Z,34.93
2019-05-14T03:26:31.367Z,34.80
2019-05-14T03:29:00.960Z,32.23
2019-05-14T03:31:32.850Z,34.20
2019-05-14T03:34:03.348Z,33.37
2019-05-14T03:36:34.688Z,33.67
2019-05-14T03:39:05.855Z,30.77
2019-05-14T03:41:35.520Z,30.20
2019-05-14T03:44:05.383Z,30.60
2019-05-14T03:46:48.620Z,30.00
2019-05-14T03:49:09.250Z,30.83
2019-05-14T03:51:39.345Z,31.83
2019-05-14T03:54:12.806Z,28.43
2019-05-14T03:56:40.797Z,26.93
2019-05-14T03:59:10.509Z,28.70
2019-05-14T04:01:40.524Z,28.43
2019-05-14T04:04:10.680Z,28.37
2019-05-14T04:06:41.967Z,28.83
2019-05-14T04:09:14.552Z,26.23
2019-05-14T04:11:50.140Z,28.90
2019-05-14T04:14:21.098Z,28.10
2019-05-14T04:17:08.038Z,28.77
2019-05-14T04:19:25.078Z,30.23
2019-05-14T04:21:59.785Z,30.10
2019-05-14T04:24:31.494Z,31.57
2019-05-14T04:27:07.948Z,30.93
2019-05-14T04:29:39.414Z,33.10
2019-05-14T04:32:09.482Z,32.50
2019-05-14T04:34:40.067Z,33.27
2019-05-14T04:37:10.596Z,33.20
2019-05-14T04:39:40.302Z,32.90
2019-05-14T04:42:10.067Z,34.40
2019-05-14T04:44:40.591Z,34.10
2019-05-14T04:47:27.911Z,36.13
2019-05-14T04:49:42.179Z,34.80
2019-05-14T04:52:11.874Z,33.77
2019-05-14T04:54:41.591Z,36.00
2019-05-14T04:57:11.163Z,35.63
2019-05-14T04:59:40.790Z,35.13
2019-05-14T05:02:10.359Z,34.60
2019-05-14T05:04:41.367Z,33.20
2019-05-14T05:07:11.294Z,33.17
2019-05-14T05:09:40.852Z,33.80
2019-05-14T05:12:10.481Z,32.93
2019-05-14T05:14:40.053Z,30.53
2019-05-14T05:17:09.624Z,30.33
2019-05-14T05:19:44.136Z,31.43
2019-05-14T05:22:10.523Z,30.37
2019-05-14T05:24:40.166Z,30.00
2019-05-14T05:27:09.742Z,29.60
2019-05-14T05:29:39.470Z,27.77
2019-05-14T05:32:09.097Z,27.23
2019-05-14T05:34:39.047Z,25.73
2019-05-14T05:37:08.871Z,26.53
2019-05-14T05:39:38.814Z,25.10
2019-05-14T05:42:09.245Z,25.10
2019-05-14T05:44:39.522Z,25.50
2019-05-14T05:47:09.479Z,25.13
2019-05-14T05:49:39.601Z,25.20
2019-05-14T05:52:09.189Z,25.77
2019-05-14T05:54:38.797Z,26.83
2019-05-14T05:57:09.297Z,26.07
2019-05-14T05:59:39.467Z,26.53
2019-05-14T06:02:09.627Z,26.93
2019-05-14T06:04:39.631Z,25.53
2019-05-14T06:07:09.245Z,25.47
2019-05-14T06:09:38.863Z,25.10
2019-05-14T06:12:08.829Z,23.47
2019-05-14T06:14:38.565Z,25.60
2019-05-14T06:17:08.704Z,26.00
2019-05-14T06:19:38.508Z,26.40
2019-05-14T06:22:09.744Z,25.17
2019-05-14T06:24:39.722Z,25.00
2019-05-14T06:27:09.635Z,26.50
2019-05-14T06:29:39.226Z,27.70
2019-05-14T06:32:09.418Z,30.33
2019-05-14T06:34:39.081Z,27.90
2019-05-14T06:37:08.690Z,27.33
2019-05-14T06:39:39.028Z,27.03
2019-05-14T06:42:09.022Z,26.90
2019-05-14T06:44:38.810Z,27.43
2019-05-14T06:47:09.304Z,25.57
2019-05-14T06:49:39.031Z,35.33
2019-05-14T06:52:08.996Z,25.70
2019-05-14T06:54:38.976Z,27.00
2019-05-14T06:57:09.018Z,26.23
2019-05-14T06:59:38.810Z,27.20
2019-05-14T07:02:08.884Z,26.70
2019-05-14T07:04:39.525Z,26.30
2019-05-14T07:07:09.171Z,26.40
2019-05-14T07:09:38.757Z,25.40
2019-05-14T07:12:09.114Z,26.27
2019-05-14T07:14:39.075Z,25.10
2019-05-14T07:17:09.284Z,25.03
2019-05-14T07:19:39.008Z,23.23
2019-05-14T07:22:09.071Z,23.13
2019-05-14T07:24:40.572Z,22.37
2019-05-14T07:27:10.179Z,23.30
2019-05-14T07:29:39.777Z,22.20
2019-05-14T07:32:09.383Z,18.33
2019-05-14T07:34:39.130Z,17.77
2019-05-14T07:37:09.336Z,19.10
2019-05-14T07:39:39.230Z,18.07
2019-05-14T07:42:09.832Z,17.47
2019-05-14T07:44:39.728Z,18.27
2019-05-14T07:47:09.289Z,18.17
2019-05-14T07:49:38.865Z,17.73
2019-05-14T07:52:09.374Z,18.93
2019-05-14T07:54:39.193Z,21.20
2019-05-14T07:57:08.997Z,17.33
2019-05-14T07:59:38.593Z,18.70
2019-05-14T08:02:09.319Z,19.77
2019-05-14T08:04:39.120Z,20.80
2019-05-14T08:07:09.139Z,20.80
2019-05-14T08:09:39.178Z,21.23
2019-05-14T08:12:09.453Z,21.80
2019-05-14T08:14:54.795Z,21.10
2019-05-14T08:17:11.247Z,22.13
2019-05-14T08:19:40.845Z,23.10
2019-05-14T08:22:10.490Z,23.30
2019-05-14T08:24:40.063Z,23.57
2019-05-14T08:27:09.674Z,22.90
2019-05-14T08:29:40.048Z,21.83
2019-05-14T08:32:09.774Z,22.77
2019-05-14T08:34:39.404Z,22.00
2019-05-14T08:37:08.976Z,22.27
2019-05-14T08:39:39.381Z,22.80
2019-05-14T08:42:09.035Z,21.30
2019-05-14T08:44:39.068Z,20.73
2019-05-14T08:47:09.605Z,21.10
2019-05-14T08:49:46.246Z,20.33
2019-05-14T08:52:10.888Z,20.60
2019-05-14T08:54:40.444Z,23.47
2019-05-14T08:57:10.246Z,22.27
2019-05-14T08:59:39.940Z,22.07
2019-05-14T09:02:10.575Z,21.30
2019-05-14T09:04:42.586Z,21.53
2019-05-14T09:07:11.984Z,21.33
2019-05-14T09:09:41.642Z,22.10
2019-05-14T09:12:12.740Z,21.97
2019-05-14T09:14:42.533Z,21.97
2019-05-14T09:17:14.730Z,21.80
2019-05-14T09:19:57.748Z,21.03
2019-05-14T09:22:14.744Z,20.00
2019-05-14T09:24:44.342Z,20.87
2019-05-14T09:27:13.936Z,21.60
2019-05-14T09:29:43.516Z,19.73
2019-05-14T09:32:13.134Z,20.77
2019-05-14T09:34:42.672Z,20.80
2019-05-14T09:37:12.275Z,22.53
2019-05-14T09:39:41.878Z,23.40
2019-05-14T09:42:11.397Z,23.30
2019-05-14T09:44:40.982Z,23.83
2019-05-14T09:47:10.567Z,24.67
2019-05-14T09:49:40.306Z,23.00
2019-05-14T09:52:09.885Z,23.60
2019-05-14T09:54:43.713Z,22.67
2019-05-14T09:57:10.778Z,25.17
2019-05-14T09:59:40.351Z,19.67
2019-05-14T10:02:09.950Z,23.50
2019-05-14T10:04:39.514Z,22.83
2019-05-14T10:07:09.084Z,22.73
2019-05-14T10:09:39.292Z,21.27
2019-05-14T10:12:09.166Z,21.40
2019-05-14T10:14:39.486Z,23.53
2019-05-14T10:17:09.139Z,23.43
2019-05-14T10:19:39.480Z,23.13
2019-05-14T10:22:09.280Z,23.10
2019-05-14T10:24:38.998Z,23.50
2019-05-14T10:27:09.122Z,21.23
2019-05-14T10:29:39.391Z,19.80
2019-05-14T10:32:09.198Z,19.60
2019-05-14T10:34:38.762Z,18.30
2019-05-14T10:37:08.769Z,18.03
2019-05-14T10:39:39.268Z,18.80
2019-05-14T10:42:09.215Z,18.80
2019-05-14T10:44:39.050Z,16.63
2019-05-14T10:47:09.461Z,18.77
2019-05-14T10:49:39.154Z,18.63
2019-05-14T10:52:08.747Z,17.83
2019-05-14T10:54:40.289Z,17.60
2019-05-14T10:57:09.946Z,17.37
2019-05-14T10:59:39.699Z,16.90
2019-05-14T11:02:11.961Z,16.83
2019-05-14T11:04:40.734Z,18.47
2019-05-14T11:07:10.310Z,18.50
2019-05-14T11:09:39.884Z,17.50
2019-05-14T11:12:09.504Z,16.70
2019-05-14T11:14:39.103Z,17.43
2019-05-14T11:17:11.861Z,23.37
2019-05-14T11:19:40.130Z,17.43
2019-05-14T11:22:09.708Z,16.03
2019-05-14T11:24:39.314Z,16.10
2019-05-14T11:27:08.903Z,15.87
2019-05-14T11:29:38.909Z,15.43
2019-05-14T11:32:09.661Z,15.53
2019-05-14T11:34:39.554Z,15.87
2019-05-14T11:37:09.137Z,15.83
2019-05-14T11:39:38.698Z,15.83
2019-05-14T11:42:08.707Z,15.47
2019-05-14T11:44:38.459Z,14.53
2019-05-14T11:47:09.126Z,16.37
2019-05-14T11:49:38.879Z,18.27
2019-05-14T11:52:11.565Z,17.47
2019-05-14T11:54:41.131Z,17.50
2019-05-14T11:57:11.849Z,16.93
2019-05-14T11:59:41.610Z,16.50
2019-05-14T12:02:11.283Z,15.80
2019-05-14T12:04:40.850Z,17.23
2019-05-14T12:07:10.463Z,17.00
2019-05-14T12:09:40.034Z,17.73
2019-05-14T12:12:12.513Z,17.03
2019-05-14T12:14:40.927Z,17.47
2019-05-14T12:17:10.501Z,17.50
2019-05-14T12:19:43.352Z,17.77
2019-05-14T12:22:12.362Z,18.47
2019-05-14T12:24:43.601Z,17.83
2019-05-14T12:27:13.181Z,19.23
2019-05-14T12:29:42.760Z,19.30
2019-05-14T12:32:13.209Z,20.20
2019-05-14T12:34:42.852Z,17.87
2019-05-14T12:37:12.420Z,17.67
2019-05-14T12:39:42.008Z,19.13
2019-05-14T12:42:11.606Z,17.80
2019-05-14T12:44:41.266Z,18.10
2019-05-14T12:47:10.837Z,18.13
2019-05-14T12:49:40.445Z,18.63
2019-05-14T12:52:22.282Z,18.77
2019-05-14T12:54:41.425Z,17.67
2019-05-14T12:57:11.046Z,18.10
2019-05-14T12:59:40.626Z,18.13
2019-05-14T13:02:10.455Z,17.00
2019-05-14T13:04:40.041Z,17.40
2019-05-14T13:07:09.603Z,18.27
2019-05-14T13:09:39.238Z,18.90
2019-05-14T13:12:11.207Z,18.00
2019-05-14T13:14:40.155Z,18.00
2019-05-14T13:17:09.727Z,18.30
2019-05-14T13:19:39.339Z,18.97
2019-05-14T13:22:14.271Z,18.77
2019-05-14T13:24:40.408Z,19.33
2019-05-14T13:27:09.999Z,18.63
2019-05-14T13:29:39.711Z,18.93
2019-05-14T13:32:12.523Z,20.30
2019-05-14T13:34:40.704Z,18.90
2019-05-14T13:37:10.275Z,18.83
2019-05-14T13:39:40.114Z,20.27
2019-05-14T13:42:11.961Z,19.47
2019-05-14T13:44:41.066Z,19.37
2019-05-14T13:47:10.675Z,19.67
2019-05-14T13:49:40.274Z,18.47
2019-05-14T13:52:09.839Z,18.17
2019-05-14T13:54:40.270Z,19.03
2019-05-14T13:57:12.031Z,19.07
2019-05-14T13:59:44.461Z,18.77
2019-05-14T14:02:12.516Z,38.47
2019-05-14T14:04:42.087Z,51.50
2019-05-14T14:07:11.963Z,91.27
2019-05-14T14:09:41.614Z,22.63
2019-05-14T14:12:11.238Z,23.10
2019-05-14T14:14:40.918Z,20.27
2019-05-14T14:17:10.477Z,21.73
2019-05-14T14:19:40.074Z,21.43
2019-05-14T14:22:10.155Z,21.33
2019-05-14T14:24:39.822Z,21.33
2019-05-14T14:27:09.391Z,22.53
2019-05-14T14:29:39.670Z,21.47
2019-05-14T14:32:11.406Z,22.13
2019-05-14T14:34:41.455Z,22.27
2019-05-14T14:37:11.285Z,22.60
2019-05-14T14:39:40.829Z,22.43
2019-05-14T14:42:10.434Z,23.07
2019-05-14T14:44:40.000Z,23.30
2019-05-14T14:47:09.557Z,22.47
2019-05-14T14:49:42.937Z,22.73
2019-05-14T14:52:12.108Z,23.77
2019-05-14T14:54:41.939Z,24.40
2019-05-14T14:57:11.512Z,23.70
2019-05-14T14:59:41.094Z,22.60
2019-05-14T15:02:10.691Z,20.83
2019-05-14T15:04:40.337Z,22.60
2019-05-14T15:07:10.069Z,22.80
2019-05-14T15:09:40.577Z,23.03
2019-05-14T15:12:10.444Z,23.10
2019-05-14T15:14:40.027Z,22.33
2019-05-14T15:17:09.983Z,23.43
2019-05-14T15:19:39.850Z,20.97
2019-05-14T15:22:09.475Z,22.07
2019-05-14T15:24:39.052Z,22.83
2019-05-14T15:27:15.085Z,22.17
2019-05-14T15:29:43.111Z,22.13
2019-05-14T15:32:11.321Z,21.07
2019-05-14T15:34:40.895Z,21.70
2019-05-14T15:37:10.487Z,22.67
2019-05-14T15:39:40.067Z,22.57
2019-05-14T15:42:13.835Z,22.33
2019-05-14T15:44:49.028Z,23.33
2019-05-14T15:47:12.401Z,23.30
2019-05-14T15:49:41.986Z,23.40
2019-05-14T15:52:11.766Z,24.80
2019-05-14T15:54:46.897Z,25.80
2019-05-14T15:57:12.699Z,25.67
2019-05-14T15:59:42.300Z,26.20
2019-05-14T16:02:11.931Z,25.30
2019-05-14T16:04:41.507Z,26.33
2019-05-14T16:07:11.062Z,24.30
2019-05-14T16:09:40.696Z,24.70
2019-05-14T16:12:10.258Z,22.33
2019-05-14T16:14:39.828Z,22.70
2019-05-14T16:17:11.937Z,24.43
2019-05-14T16:19:40.779Z,24.47
2019-05-14T16:22:10.381Z,24.10
2019-05-14T16:24:55.911Z,23.87
2019-05-14T16:27:11.292Z,23.57
2019-05-14T16:29:45.597Z,22.93
2019-05-14T16:32:12.278Z,23.20
2019-05-14T16:34:41.903Z,22.83
2019-05-14T16:37:11.479Z,22.80
2019-05-14T16:39:41.158Z,22.00
2019-05-14T16:42:10.760Z,22.47
2019-05-14T16:44:40.444Z,23.03
2019-05-14T16:47:10.142Z,23.97
2019-05-14T16:49:39.737Z,22.87
2019-05-14T16:52:09.426Z,24.43
2019-05-14T16:54:39.593Z,25.60
2019-05-14T16:57:10.966Z,24.30
2019-05-14T16:59:40.648Z,25.07
2019-05-14T17:02:10.251Z,26.23
2019-05-14T17:04:39.828Z,25.43
2019-05-14T17:07:09.795Z,26.90
2019-05-14T17:09:39.473Z,25.67
2019-05-14T17:12:09.026Z,28.33
2019-05-14T17:14:38.784Z,27.33
2019-05-14T17:17:09.149Z,28.60
2019-05-14T17:19:38.932Z,27.93
2019-05-14T17:22:24.330Z,29.23
2019-05-14T17:24:40.130Z,28.03
2019-05-14T17:27:09.893Z,28.33
2019-05-14T17:29:41.985Z,27.13
2019-05-14T17:32:11.777Z,28.23
2019-05-14T17:34:41.359Z,27.07
2019-05-14T17:37:10.987Z,27.77
2019-05-14T17:39:40.552Z,27.43
2019-05-14T17:42:11.666Z,29.00
2019-05-14T17:44:41.632Z,28.97
2019-05-14T17:47:11.204Z,29.97
2019-05-14T17:49:40.772Z,29.30
2019-05-14T17:52:10.389Z,29.70
2019-05-14T17:54:41.971Z,27.93
2019-05-14T17:57:11.337Z,28.03
2019-05-14T17:59:40.950Z,27.53
2019-05-14T18:02:10.581Z,28.17
2019-05-14T18:04:40.148Z,27.67
2019-05-14T18:07:09.778Z,28.30
2019-05-14T18:09:39.372Z,27.87
2019-05-14T18:12:08.986Z,26.27
2019-05-14T18:14:38.723Z,20.83
2019-05-14T18:17:10.389Z,20.00
2019-05-14T18:19:39.980Z,19.33
2019-05-14T18:22:09.592Z,14.97
2019-05-14T18:24:39.436Z,12.43
2019-05-14T18:27:09.099Z,11.93
2019-05-14T18:29:39.086Z,12.47
2019-05-14T18:32:09.202Z,11.67
2019-05-14T18:34:39.260Z,12.70
2019-05-14T18:37:13.880Z,13.83
2019-05-14T18:39:40.285Z,13.00
2019-05-14T18:42:09.852Z,13.37
2019-05-14T18:44:39.464Z,13.43
2019-05-14T18:47:09.076Z,13.33
2019-05-14T18:49:38.671Z,13.27
2019-05-14T18:52:09.011Z,14.27
2019-05-14T18:54:38.952Z,14.60
2019-05-14T18:57:11.915Z,14.43
2019-05-14T18:59:40.042Z,14.93
2019-05-14T19:02:09.716Z,14.40
2019-05-14T19:04:39.292Z,15.13
2019-05-14T19:07:08.877Z,13.93
2019-05-14T19:09:38.946Z,14.80
2019-05-14T19:12:08.728Z,14.37
2019-05-14T19:14:39.072Z,14.23
2019-05-14T19:17:09.282Z,14.30
2019-05-14T19:19:38.912Z,14.17
2019-05-14T19:22:08.523Z,14.43
2019-05-14T19:24:38.366Z,14.50
2019-05-14T19:27:09.080Z,14.40
2019-05-14T19:29:38.955Z,14.37
2019-05-14T19:32:08.518Z,14.57
2019-05-14T19:34:38.377Z,15.03
2019-05-14T19:37:08.440Z,14.17
2019-05-14T19:39:38.630Z,12.47
2019-05-14T19:42:08.696Z,13.50
2019-05-14T19:44:40.405Z,13.57
2019-05-14T19:47:09.723Z,13.83
2019-05-14T19:49:39.358Z,12.87
2019-05-14T19:52:08.952Z,13.77
2019-05-14T19:54:38.645Z,13.17
2019-05-14T19:57:09.958Z,12.90
2019-05-14T19:59:39.730Z,13.83
2019-05-14T20:02:09.699Z,13.33
2019-05-14T20:04:39.265Z,14.40
2019-05-14T20:07:09.056Z,13.97
2019-05-14T20:09:39.049Z,15.33
2019-05-14T20:12:08.833Z,15.13
2019-05-14T20:14:38.454Z,15.50
2019-05-14T20:17:08.938Z,15.47
2019-05-14T20:19:39.582Z,16.00
2019-05-14T20:22:09.373Z,15.40
2019-05-14T20:24:41.678Z,17.83
2019-05-14T20:27:12.252Z,16.47
2019-05-14T20:29:41.642Z,17.27
2019-05-14T20:32:44.278Z,17.13
2019-05-14T20:35:30.659Z,17.90
2019-05-14T20:37:49.352Z,16.13
2019-05-14T20:40:19.317Z,15.83
2019-05-14T20:42:49.299Z,17.43
2019-05-14T20:45:19.320Z,17.03
2019-05-14T20:47:54.350Z,17.90
2019-05-14T20:50:24.082Z,17.37
2019-05-14T20:52:59.971Z,17.33
2019-05-14T20:55:29.631Z,18.07
2019-05-14T20:57:59.225Z,17.67
2019-05-14T21:00:29.503Z,17.33
2019-05-14T21:02:59.814Z,16.50
2019-05-14T21:05:32.861Z,18.93
2019-05-14T21:08:02.452Z,19.23
2019-05-14T21:10:31.995Z,19.00
2019-05-14T21:13:01.518Z,18.70
2019-05-14T21:15:31.166Z,18.47
2019-05-14T21:18:00.692Z,18.63
2019-05-14T21:20:30.317Z,19.80
2019-05-14T21:22:59.851Z,19.13
2019-05-14T21:25:29.773Z,19.63
2019-05-14T21:27:59.383Z,21.93
2019-05-14T21:30:29.807Z,21.50
2019-05-14T21:33:00.417Z,21.73
2019-05-14T21:35:30.241Z,21.40
2019-05-14T21:37:59.789Z,23.93
2019-05-14T21:40:32.128Z,23.17
2019-05-14T21:43:00.609Z,22.40
2019-05-14T21:45:30.241Z,24.20
2019-05-14T21:47:59.877Z,25.37
2019-05-14T21:50:29.421Z,25.33
2019-05-14T21:52:59.587Z,25.37
2019-05-14T21:55:29.314Z,25.13
2019-05-14T21:57:58.885Z,24.67
2019-05-14T22:00:42.147Z,24.77
2019-05-14T22:03:10.599Z,24.20
2019-05-14T22:05:40.414Z,24.80
2019-05-14T22:08:09.961Z,24.40
2019-05-14T22:10:40.124Z,25.30
2019-05-14T22:13:09.880Z,24.63
2019-05-14T22:15:39.425Z,25.27
2019-05-14T22:18:16.937Z,25.83
2019-05-14T22:20:40.427Z,24.87
2019-05-14T22:23:09.964Z,25.53
2019-05-14T22:25:39.785Z,25.50
2019-05-14T22:28:15.371Z,24.70
2019-05-14T22:30:40.620Z,25.07
2019-05-14T22:33:10.279Z,25.60
2019-05-14T22:35:41.627Z,25.07
2019-05-14T22:38:11.354Z,25.30
2019-05-14T22:40:41.131Z,24.93
2019-05-14T22:43:10.776Z,24.13
2019-05-14T22:45:40.556Z,25.10
2019-05-14T22:48:10.193Z,25.70
2019-05-14T22:50:41.342Z,27.20
2019-05-14T22:53:11.144Z,25.37
2019-05-14T22:55:40.792Z,25.23
2019-05-14T22:58:24.559Z,25.77
2019-05-14T23:00:46.476Z,25.67
2019-05-14T23:03:13.377Z,28.73
2019-05-14T23:05:43.048Z,27.10
2019-05-14T23:08:12.672Z,26.83
2019-05-14T23:10:42.360Z,25.53
2019-05-14T23:13:11.980Z,27.00
2019-05-14T23:15:41.628Z,25.47
2019-05-14T23:18:11.303Z,27.43
2019-05-14T23:20:40.940Z,26.43
2019-05-14T23:23:10.652Z,27.20
2019-05-14T23:25:40.273Z,27.50
2019-05-14T23:28:09.920Z,27.50
2019-05-14T23:30:39.599Z,29.17
2019-05-14T23:33:09.269Z,27.17
2019-05-14T23:35:39.229Z,28.40
2019-05-14T23:38:09.190Z,27.73
2019-05-14T23:40:39.246Z,27.63
2019-05-14T23:43:08.891Z,28.90
2019-05-14T23:45:38.523Z,29.47
2019-05-14T23:48:09.544Z,28.20
2019-05-14T23:50:39.419Z,31.03
2019-05-14T23:53:09.408Z,30.13
2019-05-14T23:55:39.171Z,28.77
2019-05-14T23:58:08.789Z,28.00
